METAR Data
IDs: Format: Raw Decoded Include TAF

Data at: 0013 UTC 30 May 2020

METAR for:EBFS (Florennes(AB), WN, BX)
Text:EBFS 292355Z AUTO 06005KT 9999 SCT085/// BKN100/// OVC110/// 13/04 Q1023 BLU
Temperature: 13.0°C ( 55°F)
Dewpoint: 4.0°C ( 39°F) [RH = 54%]
Pressure (altimeter):30.21 inches Hg (1023.0 mb)
Winds:from the ENE (60 degrees) at 6 MPH (5 knots; 2.6 m/s)
Visibility:6 or more sm (10+ km)
Ceiling:10000 feet AGL
Clouds: scattered clouds at 8500 feet AGL, broken clouds at 10000 feet AGL, overcast cloud deck at 11000 feet AGL

TAF for:EBFS (Florennes(AB), WN, BX) issued at 1541 UTC 29 May 2020
Text:TAF EBFS 291541Z 2919/3007 07008KT 9999 FEW250
Forecast period:1900 UTC 29 May 2020 to 0700 UTC 30 May 2020
Forecast type:FROM: standard forecast or significant change
Winds:from the ENE (70 degrees) at 9 MPH (8 knots; 4.1 m/s)
Visibility:6 or more sm (10+ km)
Ceiling:at least 12,000 feet AGL
Clouds: few clouds at 25000 feet AGL